sensor_id;sensor_type;location;lat;lon;timestamp;P1;durP1;ratioP1;P2;durP2;ratioP2
68593;SDS011;55563;52.416;13.548;2022-12-17T00:00:21;49.35;;;20.50;;
68593;SDS011;55563;52.416;13.548;2022-12-17T00:02:42;55.00;;;21.65;;
68593;SDS011;55563;52.416;13.548;2022-12-17T00:05:03;46.10;;;19.35;;
68593;SDS011;55563;52.416;13.548;2022-12-17T00:09:44;45.80;;;15.88;;
68593;SDS011;55563;52.416;13.548;2022-12-17T00:12:05;52.08;;;17.40;;
68593;SDS011;55563;52.416;13.548;2022-12-17T00:14:25;52.88;;;18.85;;
68593;SDS011;55563;52.416;13.548;2022-12-17T00:16:46;53.30;;;17.25;;
68593;SDS011;55563;52.416;13.548;2022-12-17T00:19:07;45.47;;;16.67;;
68593;SDS011;55563;52.416;13.548;2022-12-17T00:21:27;56.45;;;18.40;;
68593;SDS011;55563;52.416;13.548;2022-12-17T00:23:48;43.25;;;15.90;;
68593;SDS011;55563;52.416;13.548;2022-12-17T00:28:29;50.58;;;17.42;;
68593;SDS011;55563;52.416;13.548;2022-12-17T00:30:51;41.05;;;15.20;;
68593;SDS011;55563;52.416;13.548;2022-12-17T00:33:11;43.00;;;17.65;;
68593;SDS011;55563;52.416;13.548;2022-12-17T00:35:32;44.47;;;16.33;;
68593;SDS011;55563;52.416;13.548;2022-12-17T00:37:53;55.13;;;17.85;;
68593;SDS011;55563;52.416;13.548;2022-12-17T00:40:13;49.83;;;18.05;;
68593;SDS011;55563;52.416;13.548;2022-12-17T00:42:34;51.83;;;18.40;;
68593;SDS011;55563;52.416;13.548;2022-12-17T00:44:55;43.05;;;16.90;;
68593;SDS011;55563;52.416;13.548;2022-12-17T00:47:15;45.55;;;15.45;;
68593;SDS011;55563;52.416;13.548;2022-12-17T00:49:36;43.45;;;16.17;;
68593;SDS011;55563;52.416;13.548;2022-12-17T00:51:58;38.85;;;13.63;;
68593;SDS011;55563;52.416;13.548;2022-12-17T00:54:20;40.17;;;14.63;;
68593;SDS011;55563;52.416;13.548;2022-12-17T00:56:40;41.13;;;15.38;;
68593;SDS011;55563;52.416;13.548;2022-12-17T00:59:01;40.40;;;14.50;;
68593;SDS011;55563;52.416;13.548;2022-12-17T01:01:21;40.95;;;14.32;;
68593;SDS011;55563;52.416;13.548;2022-12-17T01:03:42;41.85;;;16.27;;
68593;SDS011;55563;52.416;13.548;2022-12-17T01:08:23;38.83;;;12.52;;
68593;SDS011;55563;52.416;13.548;2022-12-17T01:10:44;38.03;;;14.35;;
68593;SDS011;55563;52.416;13.548;2022-12-17T01:13:05;34.67;;;12.10;;
68593;SDS011;55563;52.416;13.548;2022-12-17T01:15:26;42.20;;;13.48;;
68593;SDS011;55563;52.416;13.548;2022-12-17T01:17:46;37.25;;;14.38;;
68593;SDS011;55563;52.416;13.548;2022-12-17T01:20:07;36.70;;;13.32;;
68593;SDS011;55563;52.416;13.548;2022-12-17T01:22:28;36.15;;;13.32;;
68593;SDS011;55563;52.416;13.548;2022-12-17T01:24:49;31.55;;;13.07;;
68593;SDS011;55563;52.416;13.548;2022-12-17T01:27:10;37.40;;;12.55;;
68593;SDS011;55563;52.416;13.548;2022-12-17T01:29:31;33.92;;;12.45;;
68593;SDS011;55563;52.416;13.548;2022-12-17T01:31:51;32.42;;;13.45;;
68593;SDS011;55563;52.416;13.548;2022-12-17T01:34:12;32.45;;;12.18;;
68593;SDS011;55563;52.416;13.548;2022-12-17T01:36:33;31.58;;;13.15;;
68593;SDS011;55563;52.416;13.548;2022-12-17T01:38:53;33.25;;;13.52;;
68593;SDS011;55563;52.416;13.548;2022-12-17T01:41:14;32.22;;;12.80;;
68593;SDS011;55563;52.416;13.548;2022-12-17T01:43:36;33.25;;;11.60;;
68593;SDS011;55563;52.416;13.548;2022-12-17T01:45:57;34.55;;;13.13;;
68593;SDS011;55563;52.416;13.548;2022-12-17T01:48:18;33.75;;;12.13;;
68593;SDS011;55563;52.416;13.548;2022-12-17T01:50:44;25.80;;;10.27;;
68593;SDS011;55563;52.416;13.548;2022-12-17T01:53:09;26.90;;;10.77;;
68593;SDS011;55563;52.416;13.548;2022-12-17T01:55:31;25.08;;;9.38;;
68593;SDS011;55563;52.416;13.548;2022-12-17T01:57:52;23.33;;;9.82;;
68593;SDS011;55563;52.416;13.548;2022-12-17T02:00:13;20.50;;;8.00;;
68593;SDS011;55563;52.416;13.548;2022-12-17T02:02:36;20.88;;;9.77;;
68593;SDS011;55563;52.416;13.548;2022-12-17T02:04:57;26.23;;;10.35;;
68593;SDS011;55563;52.416;13.548;2022-12-17T02:07:22;19.95;;;8.40;;
68593;SDS011;55563;52.416;13.548;2022-12-17T02:10:08;21.27;;;9.30;;
68593;SDS011;55563;52.416;13.548;2022-12-17T02:12:43;24.08;;;8.95;;
68593;SDS011;55563;52.416;13.548;2022-12-17T02:15:16;21.48;;;9.75;;
68593;SDS011;55563;52.416;13.548;2022-12-17T02:17:45;18.92;;;8.00;;
68593;SDS011;55563;52.416;13.548;2022-12-17T02:23:02;26.25;;;9.40;;
68593;SDS011;55563;52.416;13.548;2022-12-17T02:26:05;19.73;;;9.15;;
68593;SDS011;55563;52.416;13.548;2022-12-17T02:28:33;20.60;;;9.20;;
68593;SDS011;55563;52.416;13.548;2022-12-17T02:30:55;23.50;;;9.82;;
68593;SDS011;55563;52.416;13.548;2022-12-17T02:33:17;21.92;;;8.75;;
68593;SDS011;55563;52.416;13.548;2022-12-17T02:35:40;27.10;;;10.20;;
68593;SDS011;55563;52.416;13.548;2022-12-17T02:37:53;23.13;;;9.43;;
68593;SDS011;55563;52.416;13.548;2022-12-17T02:40:15;23.90;;;10.48;;
68593;SDS011;55563;52.416;13.548;2022-12-17T02:42:38;21.40;;;8.70;;
68593;SDS011;55563;52.416;13.548;2022-12-17T02:45:03;20.02;;;9.30;;
68593;SDS011;55563;52.416;13.548;2022-12-17T02:47:25;25.02;;;8.35;;
68593;SDS011;55563;52.416;13.548;2022-12-17T02:49:47;25.65;;;10.25;;
68593;SDS011;55563;52.416;13.548;2022-12-17T02:52:10;22.60;;;9.57;;
68593;SDS011;55563;52.416;13.548;2022-12-17T02:54:32;23.40;;;10.23;;
68593;SDS011;55563;52.416;13.548;2022-12-17T02:56:53;22.40;;;8.57;;
68593;SDS011;55563;52.416;13.548;2022-12-17T02:59:14;25.67;;;9.13;;
68593;SDS011;55563;52.416;13.548;2022-12-17T03:01:43;22.05;;;8.70;;
68593;SDS011;55563;52.416;13.548;2022-12-17T03:04:05;23.38;;;10.27;;
68593;SDS011;55563;52.416;13.548;2022-12-17T03:06:26;24.83;;;9.88;;
68593;SDS011;55563;52.416;13.548;2022-12-17T03:08:46;25.52;;;9.45;;
68593;SDS011;55563;52.416;13.548;2022-12-17T03:11:09;22.58;;;8.88;;
68593;SDS011;55563;52.416;13.548;2022-12-17T03:13:29;23.17;;;9.57;;
68593;SDS011;55563;52.416;13.548;2022-12-17T03:15:50;26.33;;;8.95;;
68593;SDS011;55563;52.416;13.548;2022-12-17T03:18:10;24.73;;;10.15;;
68593;SDS011;55563;52.416;13.548;2022-12-17T03:20:31;24.55;;;9.60;;
68593;SDS011;55563;52.416;13.548;2022-12-17T03:22:51;29.13;;;11.80;;
68593;SDS011;55563;52.416;13.548;2022-12-17T03:25:12;27.65;;;9.68;;
68593;SDS011;55563;52.416;13.548;2022-12-17T03:27:32;22.05;;;9.73;;
68593;SDS011;55563;52.416;13.548;2022-12-17T03:29:53;26.92;;;9.18;;
68593;SDS011;55563;52.416;13.548;2022-12-17T03:32:13;23.73;;;9.60;;
68593;SDS011;55563;52.416;13.548;2022-12-17T03:34:34;30.08;;;10.43;;
68593;SDS011;55563;52.416;13.548;2022-12-17T03:36:54;24.02;;;10.20;;
68593;SDS011;55563;52.416;13.548;2022-12-17T03:39:15;28.25;;;11.45;;
68593;SDS011;55563;52.416;13.548;2022-12-17T03:41:36;28.35;;;10.63;;
68593;SDS011;55563;52.416;13.548;2022-12-17T03:43:57;28.40;;;10.75;;
68593;SDS011;55563;52.416;13.548;2022-12-17T03:46:17;27.00;;;11.52;;
68593;SDS011;55563;52.416;13.548;2022-12-17T03:48:38;32.58;;;11.48;;
68593;SDS011;55563;52.416;13.548;2022-12-17T03:50:59;18.90;;;7.40;;
68593;SDS011;55563;52.416;13.548;2022-12-17T03:53:20;23.25;;;8.65;;
68593;SDS011;55563;52.416;13.548;2022-12-17T03:55:41;25.55;;;9.10;;
68593;SDS011;55563;52.416;13.548;2022-12-17T03:58:01;24.30;;;10.90;;
68593;SDS011;55563;52.416;13.548;2022-12-17T04:00:22;28.90;;;11.05;;
68593;SDS011;55563;52.416;13.548;2022-12-17T04:02:42;26.60;;;10.35;;
68593;SDS011;55563;52.416;13.548;2022-12-17T04:05:03;27.70;;;10.27;;
68593;SDS011;55563;52.416;13.548;2022-12-17T04:09:44;27.77;;;10.45;;
68593;SDS011;55563;52.416;13.548;2022-12-17T04:12:07;24.98;;;9.13;;
68593;SDS011;55563;52.416;13.548;2022-12-17T04:14:28;27.10;;;10.73;;
68593;SDS011;55563;52.416;13.548;2022-12-17T04:16:48;25.70;;;9.50;;
68593;SDS011;55563;52.416;13.548;2022-12-17T04:19:09;26.42;;;10.07;;
68593;SDS011;55563;52.416;13.548;2022-12-17T04:21:29;24.80;;;9.25;;
68593;SDS011;55563;52.416;13.548;2022-12-17T04:23:50;26.73;;;10.25;;
68593;SDS011;55563;52.416;13.548;2022-12-17T04:26:10;23.23;;;9.85;;
68593;SDS011;55563;52.416;13.548;2022-12-17T04:28:31;24.20;;;8.98;;
68593;SDS011;55563;52.416;13.548;2022-12-17T04:30:51;24.90;;;9.93;;
68593;SDS011;55563;52.416;13.548;2022-12-17T04:33:12;27.13;;;9.02;;
68593;SDS011;55563;52.416;13.548;2022-12-17T04:35:33;21.70;;;8.65;;
68593;SDS011;55563;52.416;13.548;2022-12-17T04:37:53;21.67;;;7.65;;
68593;SDS011;55563;52.416;13.548;2022-12-17T04:40:14;22.38;;;8.90;;
68593;SDS011;55563;52.416;13.548;2022-12-17T04:42:34;21.83;;;8.30;;
68593;SDS011;55563;52.416;13.548;2022-12-17T04:44:55;18.80;;;8.02;;
68593;SDS011;55563;52.416;13.548;2022-12-17T04:47:15;22.33;;;8.48;;
68593;SDS011;55563;52.416;13.548;2022-12-17T04:49:36;22.48;;;9.10;;
68593;SDS011;55563;52.416;13.548;2022-12-17T04:51:56;21.98;;;9.60;;
68593;SDS011;55563;52.416;13.548;2022-12-17T04:54:17;22.80;;;7.80;;
68593;SDS011;55563;52.416;13.548;2022-12-17T04:56:37;26.10;;;8.98;;
68593;SDS011;55563;52.416;13.548;2022-12-17T04:58:58;24.05;;;8.63;;
68593;SDS011;55563;52.416;13.548;2022-12-17T05:01:18;21.25;;;7.95;;
68593;SDS011;55563;52.416;13.548;2022-12-17T05:03:39;20.98;;;8.27;;
68593;SDS011;55563;52.416;13.548;2022-12-17T05:05:59;20.65;;;8.02;;
68593;SDS011;55563;52.416;13.548;2022-12-17T05:10:41;19.25;;;7.95;;
68593;SDS011;55563;52.416;13.548;2022-12-17T05:13:02;20.35;;;8.50;;
68593;SDS011;55563;52.416;13.548;2022-12-17T05:15:22;19.55;;;7.57;;
68593;SDS011;55563;52.416;13.548;2022-12-17T05:17:43;18.55;;;7.60;;
68593;SDS011;55563;52.416;13.548;2022-12-17T05:20:03;18.75;;;8.43;;
68593;SDS011;55563;52.416;13.548;2022-12-17T05:22:24;19.25;;;8.05;;
68593;SDS011;55563;52.416;13.548;2022-12-17T05:24:45;16.98;;;6.97;;
68593;SDS011;55563;52.416;13.548;2022-12-17T05:27:06;19.40;;;8.10;;
68593;SDS011;55563;52.416;13.548;2022-12-17T05:29:26;20.77;;;8.45;;
68593;SDS011;55563;52.416;13.548;2022-12-17T05:31:48;18.05;;;8.10;;
68593;SDS011;55563;52.416;13.548;2022-12-17T05:34:09;19.95;;;8.00;;
68593;SDS011;55563;52.416;13.548;2022-12-17T05:36:29;20.17;;;8.00;;
68593;SDS011;55563;52.416;13.548;2022-12-17T05:38:50;20.02;;;7.75;;
68593;SDS011;55563;52.416;13.548;2022-12-17T05:41:10;18.23;;;8.02;;
68593;SDS011;55563;52.416;13.548;2022-12-17T05:43:31;16.98;;;7.15;;
68593;SDS011;55563;52.416;13.548;2022-12-17T05:45:51;18.33;;;7.88;;
68593;SDS011;55563;52.416;13.548;2022-12-17T05:48:12;21.92;;;8.85;;
68593;SDS011;55563;52.416;13.548;2022-12-17T05:50:32;18.55;;;8.00;;
68593;SDS011;55563;52.416;13.548;2022-12-17T05:52:53;18.33;;;7.30;;
68593;SDS011;55563;52.416;13.548;2022-12-17T05:55:13;15.27;;;6.93;;
68593;SDS011;55563;52.416;13.548;2022-12-17T05:57:34;18.58;;;7.57;;
68593;SDS011;55563;52.416;13.548;2022-12-17T05:59:54;19.55;;;7.65;;
68593;SDS011;55563;52.416;13.548;2022-12-17T06:02:15;21.75;;;8.95;;
68593;SDS011;55563;52.416;13.548;2022-12-17T06:04:36;17.38;;;7.03;;
68593;SDS011;55563;52.416;13.548;2022-12-17T06:06:57;15.23;;;7.70;;
68593;SDS011;55563;52.416;13.548;2022-12-17T06:09:17;22.75;;;9.38;;
68593;SDS011;55563;52.416;13.548;2022-12-17T06:11:38;19.42;;;7.80;;
68593;SDS011;55563;52.416;13.548;2022-12-17T06:13:58;18.20;;;7.15;;
68593;SDS011;55563;52.416;13.548;2022-12-17T06:16:19;18.23;;;7.18;;
68593;SDS011;55563;52.416;13.548;2022-12-17T06:18:40;22.33;;;8.43;;
68593;SDS011;55563;52.416;13.548;2022-12-17T06:21:00;16.60;;;7.30;;
68593;SDS011;55563;52.416;13.548;2022-12-17T06:23:21;19.63;;;8.65;;
68593;SDS011;55563;52.416;13.548;2022-12-17T06:25:41;17.80;;;7.30;;
68593;SDS011;55563;52.416;13.548;2022-12-17T06:28:02;21.33;;;9.10;;
68593;SDS011;55563;52.416;13.548;2022-12-17T06:30:22;19.40;;;7.32;;
68593;SDS011;55563;52.416;13.548;2022-12-17T06:32:43;18.25;;;7.38;;
68593;SDS011;55563;52.416;13.548;2022-12-17T06:35:03;20.13;;;8.02;;
68593;SDS011;55563;52.416;13.548;2022-12-17T06:37:25;18.55;;;7.93;;
68593;SDS011;55563;52.416;13.548;2022-12-17T06:39:45;21.55;;;8.18;;
68593;SDS011;55563;52.416;13.548;2022-12-17T06:42:06;20.60;;;8.98;;
68593;SDS011;55563;52.416;13.548;2022-12-17T06:44:30;18.58;;;8.18;;
68593;SDS011;55563;52.416;13.548;2022-12-17T06:46:51;21.60;;;8.23;;
68593;SDS011;55563;52.416;13.548;2022-12-17T06:49:12;21.92;;;8.82;;
68593;SDS011;55563;52.416;13.548;2022-12-17T06:51:32;19.40;;;8.05;;
68593;SDS011;55563;52.416;13.548;2022-12-17T06:53:53;17.73;;;7.75;;
68593;SDS011;55563;52.416;13.548;2022-12-17T06:56:13;17.77;;;7.75;;
68593;SDS011;55563;52.416;13.548;2022-12-17T06:58:34;20.17;;;8.23;;
68593;SDS011;55563;52.416;13.548;2022-12-17T07:00:55;20.67;;;8.70;;
68593;SDS011;55563;52.416;13.548;2022-12-17T07:03:15;22.92;;;9.32;;
68593;SDS011;55563;52.416;13.548;2022-12-17T07:05:36;22.58;;;9.60;;
68593;SDS011;55563;52.416;13.548;2022-12-17T07:07:58;22.08;;;9.98;;
68593;SDS011;55563;52.416;13.548;2022-12-17T07:10:19;17.55;;;7.75;;
68593;SDS011;55563;52.416;13.548;2022-12-17T07:12:40;21.00;;;8.75;;
68593;SDS011;55563;52.416;13.548;2022-12-17T07:15:01;17.33;;;8.52;;
68593;SDS011;55563;52.416;13.548;2022-12-17T07:17:21;18.77;;;8.68;;
68593;SDS011;55563;52.416;13.548;2022-12-17T07:19:42;22.80;;;9.52;;
68593;SDS011;55563;52.416;13.548;2022-12-17T07:22:02;17.88;;;8.60;;
68593;SDS011;55563;52.416;13.548;2022-12-17T07:24:23;20.23;;;8.48;;
68593;SDS011;55563;52.416;13.548;2022-12-17T07:26:43;19.23;;;7.95;;
68593;SDS011;55563;52.416;13.548;2022-12-17T07:29:04;18.83;;;8.07;;
68593;SDS011;55563;52.416;13.548;2022-12-17T07:31:24;17.90;;;8.43;;
68593;SDS011;55563;52.416;13.548;2022-12-17T07:33:45;20.90;;;8.80;;
68593;SDS011;55563;52.416;13.548;2022-12-17T07:36:06;42.03;;;17.65;;
68593;SDS011;55563;52.416;13.548;2022-12-17T07:38:26;50.75;;;21.10;;
68593;SDS011;55563;52.416;13.548;2022-12-17T07:40:47;34.60;;;16.55;;
68593;SDS011;55563;52.416;13.548;2022-12-17T07:43:09;31.45;;;12.80;;
68593;SDS011;55563;52.416;13.548;2022-12-17T07:45:31;24.50;;;10.50;;
68593;SDS011;55563;52.416;13.548;2022-12-17T07:47:52;23.15;;;9.30;;
68593;SDS011;55563;52.416;13.548;2022-12-17T07:50:13;28.92;;;12.85;;
68593;SDS011;55563;52.416;13.548;2022-12-17T07:52:33;29.13;;;11.93;;
68593;SDS011;55563;52.416;13.548;2022-12-17T07:54:54;19.80;;;9.25;;
68593;SDS011;55563;52.416;13.548;2022-12-17T07:57:14;18.65;;;8.23;;
68593;SDS011;55563;52.416;13.548;2022-12-17T07:59:35;16.88;;;7.82;;
68593;SDS011;55563;52.416;13.548;2022-12-17T08:01:55;18.52;;;7.78;;
68593;SDS011;55563;52.416;13.548;2022-12-17T08:04:16;22.10;;;11.43;;
68593;SDS011;55563;52.416;13.548;2022-12-17T08:06:36;20.15;;;9.50;;
68593;SDS011;55563;52.416;13.548;2022-12-17T08:08:57;16.40;;;7.57;;
68593;SDS011;55563;52.416;13.548;2022-12-17T08:11:17;17.70;;;7.72;;
68593;SDS011;55563;52.416;13.548;2022-12-17T08:13:38;17.63;;;7.63;;
68593;SDS011;55563;52.416;13.548;2022-12-17T08:15:59;19.63;;;7.88;;
68593;SDS011;55563;52.416;13.548;2022-12-17T08:18:19;22.52;;;9.98;;
68593;SDS011;55563;52.416;13.548;2022-12-17T08:20:40;24.67;;;10.27;;
68593;SDS011;55563;52.416;13.548;2022-12-17T08:23:01;18.98;;;8.32;;
68593;SDS011;55563;52.416;13.548;2022-12-17T08:25:23;27.17;;;12.57;;
68593;SDS011;55563;52.416;13.548;2022-12-17T08:27:44;41.45;;;15.48;;
68593;SDS011;55563;52.416;13.548;2022-12-17T08:32:25;23.45;;;11.02;;
68593;SDS011;55563;52.416;13.548;2022-12-17T08:34:46;29.90;;;12.23;;
68593;SDS011;55563;52.416;13.548;2022-12-17T08:37:06;28.25;;;11.70;;
68593;SDS011;55563;52.416;13.548;2022-12-17T08:39:27;27.83;;;11.93;;
68593;SDS011;55563;52.416;13.548;2022-12-17T08:41:47;21.15;;;8.60;;
68593;SDS011;55563;52.416;13.548;2022-12-17T08:44:08;23.45;;;10.18;;
68593;SDS011;55563;52.416;13.548;2022-12-17T08:46:28;23.15;;;10.70;;
68593;SDS011;55563;52.416;13.548;2022-12-17T08:48:49;21.50;;;10.00;;
68593;SDS011;55563;52.416;13.548;2022-12-17T08:51:09;22.85;;;11.20;;
68593;SDS011;55563;52.416;13.548;2022-12-17T08:53:30;18.48;;;9.45;;
68593;SDS011;55563;52.416;13.548;2022-12-17T08:55:50;17.10;;;8.73;;
68593;SDS011;55563;52.416;13.548;2022-12-17T08:58:11;16.40;;;6.93;;
68593;SDS011;55563;52.416;13.548;2022-12-17T09:00:31;19.83;;;8.57;;
68593;SDS011;55563;52.416;13.548;2022-12-17T09:02:59;19.77;;;8.73;;
68593;SDS011;55563;52.416;13.548;2022-12-17T09:05:21;17.52;;;8.15;;
68593;SDS011;55563;52.416;13.548;2022-12-17T09:07:41;17.85;;;8.75;;
68593;SDS011;55563;52.416;13.548;2022-12-17T09:10:02;21.25;;;9.82;;
68593;SDS011;55563;52.416;13.548;2022-12-17T09:12:23;27.52;;;12.07;;
68593;SDS011;55563;52.416;13.548;2022-12-17T09:14:44;21.10;;;9.68;;
68593;SDS011;55563;52.416;13.548;2022-12-17T09:17:04;18.83;;;8.80;;
68593;SDS011;55563;52.416;13.548;2022-12-17T09:19:25;23.67;;;10.75;;
68593;SDS011;55563;52.416;13.548;2022-12-17T09:21:45;18.33;;;9.15;;
68593;SDS011;55563;52.416;13.548;2022-12-17T09:24:06;16.17;;;8.63;;
68593;SDS011;55563;52.416;13.548;2022-12-17T09:26:29;19.08;;;8.15;;
68593;SDS011;55563;52.416;13.548;2022-12-17T09:28:49;19.60;;;9.30;;
68593;SDS011;55563;52.416;13.548;2022-12-17T09:31:10;17.33;;;7.25;;
68593;SDS011;55563;52.416;13.548;2022-12-17T09:33:31;19.33;;;8.20;;
68593;SDS011;55563;52.416;13.548;2022-12-17T09:35:51;15.15;;;7.00;;
68593;SDS011;55563;52.416;13.548;2022-12-17T09:38:12;15.05;;;7.95;;
68593;SDS011;55563;52.416;13.548;2022-12-17T09:40:33;22.58;;;9.68;;
68593;SDS011;55563;52.416;13.548;2022-12-17T09:42:55;19.70;;;8.35;;
68593;SDS011;55563;52.416;13.548;2022-12-17T09:45:30;19.55;;;9.00;;
68593;SDS011;55563;52.416;13.548;2022-12-17T09:50:30;23.42;;;11.20;;
68593;SDS011;55563;52.416;13.548;2022-12-17T09:52:51;19.08;;;9.95;;
68593;SDS011;55563;52.416;13.548;2022-12-17T09:55:14;20.92;;;10.05;;
68593;SDS011;55563;52.416;13.548;2022-12-17T09:57:31;21.50;;;9.00;;
68593;SDS011;55563;52.416;13.548;2022-12-17T09:59:53;18.30;;;8.55;;
68593;SDS011;55563;52.416;13.548;2022-12-17T10:02:16;18.52;;;8.65;;
68593;SDS011;55563;52.416;13.548;2022-12-17T10:04:39;18.65;;;9.05;;
68593;SDS011;55563;52.416;13.548;2022-12-17T10:07:03;19.17;;;8.70;;
68593;SDS011;55563;52.416;13.548;2022-12-17T10:09:32;18.65;;;8.63;;
68593;SDS011;55563;52.416;13.548;2022-12-17T10:11:54;19.38;;;8.13;;
68593;SDS011;55563;52.416;13.548;2022-12-17T10:14:18;16.10;;;7.72;;
68593;SDS011;55563;52.416;13.548;2022-12-17T10:16:43;17.38;;;7.82;;
68593;SDS011;55563;52.416;13.548;2022-12-17T10:19:05;16.95;;;8.20;;
68593;SDS011;55563;52.416;13.548;2022-12-17T10:21:33;18.80;;;8.57;;
68593;SDS011;55563;52.416;13.548;2022-12-17T10:24:05;18.90;;;9.50;;
68593;SDS011;55563;52.416;13.548;2022-12-17T10:26:28;19.42;;;9.15;;
68593;SDS011;55563;52.416;13.548;2022-12-17T10:28:59;17.90;;;8.45;;
68593;SDS011;55563;52.416;13.548;2022-12-17T10:31:21;19.58;;;9.02;;
68593;SDS011;55563;52.416;13.548;2022-12-17T10:33:45;19.25;;;8.65;;
68593;SDS011;55563;52.416;13.548;2022-12-17T10:36:22;19.65;;;9.30;;
68593;SDS011;55563;52.416;13.548;2022-12-17T10:38:44;7.07;;;3.85;;
68593;SDS011;55563;52.416;13.548;2022-12-17T10:41:21;21.20;;;9.45;;
68593;SDS011;55563;52.416;13.548;2022-12-17T10:46:10;20.55;;;9.38;;
68593;SDS011;55563;52.416;13.548;2022-12-17T10:48:31;20.83;;;9.30;;
68593;SDS011;55563;52.416;13.548;2022-12-17T10:50:51;22.55;;;10.15;;
68593;SDS011;55563;52.416;13.548;2022-12-17T10:53:17;23.15;;;10.20;;
68593;SDS011;55563;52.416;13.548;2022-12-17T10:55:55;18.88;;;8.70;;
68593;SDS011;55563;52.416;13.548;2022-12-17T10:58:19;19.17;;;9.10;;
68593;SDS011;55563;52.416;13.548;2022-12-17T11:00:42;20.05;;;8.95;;
68593;SDS011;55563;52.416;13.548;2022-12-17T11:03:03;15.98;;;7.85;;
68593;SDS011;55563;52.416;13.548;2022-12-17T11:05:27;5.38;;;3.67;;
68593;SDS011;55563;52.416;13.548;2022-12-17T11:07:53;19.27;;;8.93;;
68593;SDS011;55563;52.416;13.548;2022-12-17T11:10:15;17.65;;;8.25;;
68593;SDS011;55563;52.416;13.548;2022-12-17T11:12:55;21.52;;;9.35;;
68593;SDS011;55563;52.416;13.548;2022-12-17T11:15:37;19.63;;;8.82;;
68593;SDS011;55563;52.416;13.548;2022-12-17T11:18:02;20.00;;;8.68;;
68593;SDS011;55563;52.416;13.548;2022-12-17T11:20:28;19.33;;;8.73;;
68593;SDS011;55563;52.416;13.548;2022-12-17T11:23:16;18.75;;;8.68;;
68593;SDS011;55563;52.416;13.548;2022-12-17T11:25:55;8.85;;;4.40;;
68593;SDS011;55563;52.416;13.548;2022-12-17T11:28:22;18.80;;;8.55;;
68593;SDS011;55563;52.416;13.548;2022-12-17T11:30:48;16.95;;;7.70;;
68593;SDS011;55563;52.416;13.548;2022-12-17T11:33:26;16.15;;;7.88;;
68593;SDS011;55563;52.416;13.548;2022-12-17T11:35:58;8.02;;;4.75;;
68593;SDS011;55563;52.416;13.548;2022-12-17T11:38:31;18.45;;;8.35;;
68593;SDS011;55563;52.416;13.548;2022-12-17T11:41:01;13.15;;;6.30;;
68593;SDS011;55563;52.416;13.548;2022-12-17T11:43:34;17.38;;;8.25;;
68593;SDS011;55563;52.416;13.548;2022-12-17T11:46:21;16.52;;;8.43;;
68593;SDS011;55563;52.416;13.548;2022-12-17T11:52:00;19.90;;;7.93;;
68593;SDS011;55563;52.416;13.548;2022-12-17T11:57:49;17.40;;;7.82;;
68593;SDS011;55563;52.416;13.548;2022-12-17T12:00:18;16.35;;;7.93;;
68593;SDS011;55563;52.416;13.548;2022-12-17T12:02:44;19.92;;;8.57;;
68593;SDS011;55563;52.416;13.548;2022-12-17T12:05:16;17.52;;;8.23;;
68593;SDS011;55563;52.416;13.548;2022-12-17T12:07:53;19.92;;;9.02;;
68593;SDS011;55563;52.416;13.548;2022-12-17T12:10:28;18.45;;;8.57;;
68593;SDS011;55563;52.416;13.548;2022-12-17T12:13:00;15.00;;;6.65;;
68593;SDS011;55563;52.416;13.548;2022-12-17T12:15:38;19.15;;;8.25;;
68593;SDS011;55563;52.416;13.548;2022-12-17T12:18:09;17.13;;;7.43;;
68593;SDS011;55563;52.416;13.548;2022-12-17T12:24:01;16.77;;;8.10;;
68593;SDS011;55563;52.416;13.548;2022-12-17T12:26:50;20.20;;;8.65;;
68593;SDS011;55563;52.416;13.548;2022-12-17T12:32:12;21.77;;;9.27;;
68593;SDS011;55563;52.416;13.548;2022-12-17T12:34:41;21.00;;;9.10;;
68593;SDS011;55563;52.416;13.548;2022-12-17T12:37:03;19.98;;;9.10;;
68593;SDS011;55563;52.416;13.548;2022-12-17T12:39:28;20.48;;;9.55;;
68593;SDS011;55563;52.416;13.548;2022-12-17T12:42:02;22.90;;;10.07;;
68593;SDS011;55563;52.416;13.548;2022-12-17T12:47:08;18.17;;;7.88;;
68593;SDS011;55563;52.416;13.548;2022-12-17T12:49:40;20.77;;;8.20;;
68593;SDS011;55563;52.416;13.548;2022-12-17T12:52:23;19.48;;;8.38;;
68593;SDS011;55563;52.416;13.548;2022-12-17T12:57:27;20.30;;;8.32;;
68593;SDS011;55563;52.416;13.548;2022-12-17T12:59:58;19.95;;;7.75;;
68593;SDS011;55563;52.416;13.548;2022-12-17T13:04:44;19.45;;;7.88;;
68593;SDS011;55563;52.416;13.548;2022-12-17T13:07:21;22.02;;;8.70;;
68593;SDS011;55563;52.416;13.548;2022-12-17T13:11:37;18.60;;;7.95;;
68593;SDS011;55563;52.416;13.548;2022-12-17T13:13:40;21.38;;;8.85;;
68593;SDS011;55563;52.416;13.548;2022-12-17T13:15:56;21.70;;;9.05;;
68593;SDS011;55563;52.416;13.548;2022-12-17T13:18:13;18.60;;;7.60;;
68593;SDS011;55563;52.416;13.548;2022-12-17T13:20:24;22.73;;;9.60;;
68593;SDS011;55563;52.416;13.548;2022-12-17T13:22:29;20.50;;;8.93;;
68593;SDS011;55563;52.416;13.548;2022-12-17T13:24:32;20.77;;;8.52;;
68593;SDS011;55563;52.416;13.548;2022-12-17T13:26:42;19.52;;;9.05;;
68593;SDS011;55563;52.416;13.548;2022-12-17T13:28:47;18.42;;;7.97;;
68593;SDS011;55563;52.416;13.548;2022-12-17T13:31:01;19.50;;;9.35;;
68593;SDS011;55563;52.416;13.548;2022-12-17T13:36:05;19.25;;;9.55;;
68593;SDS011;55563;52.416;13.548;2022-12-17T13:38:25;19.95;;;9.05;;
68593;SDS011;55563;52.416;13.548;2022-12-17T13:40:41;19.27;;;8.13;;
68593;SDS011;55563;52.416;13.548;2022-12-17T13:42:46;19.65;;;8.32;;
68593;SDS011;55563;52.416;13.548;2022-12-17T13:44:46;22.30;;;10.25;;
68593;SDS011;55563;52.416;13.548;2022-12-17T14:01:57;22.48;;;8.98;;
68593;SDS011;55563;52.416;13.548;2022-12-17T14:03:58;21.33;;;9.20;;
68593;SDS011;55563;52.416;13.548;2022-12-17T14:06:00;19.80;;;8.15;;
68593;SDS011;55563;52.416;13.548;2022-12-17T14:08:02;24.30;;;9.27;;
68593;SDS011;55563;52.416;13.548;2022-12-17T14:10:09;22.65;;;9.85;;
68593;SDS011;55563;52.416;13.548;2022-12-17T14:12:15;21.98;;;8.93;;
68593;SDS011;55563;52.416;13.548;2022-12-17T14:14:30;23.58;;;9.63;;
68593;SDS011;55563;52.416;13.548;2022-12-17T14:16:33;24.77;;;10.98;;
68593;SDS011;55563;52.416;13.548;2022-12-17T14:18:34;21.00;;;8.88;;
68593;SDS011;55563;52.416;13.548;2022-12-17T14:20:39;19.23;;;8.23;;
68593;SDS011;55563;52.416;13.548;2022-12-17T14:22:40;19.25;;;7.93;;
68593;SDS011;55563;52.416;13.548;2022-12-17T14:24:45;24.75;;;9.82;;
68593;SDS011;55563;52.416;13.548;2022-12-17T14:26:47;22.13;;;9.07;;
68593;SDS011;55563;52.416;13.548;2022-12-17T14:28:53;18.45;;;8.00;;
68593;SDS011;55563;52.416;13.548;2022-12-17T14:31:26;21.92;;;8.95;;
68593;SDS011;55563;52.416;13.548;2022-12-17T14:33:26;15.98;;;6.40;;
68593;SDS011;55563;52.416;13.548;2022-12-17T14:35:30;19.23;;;8.45;;
68593;SDS011;55563;52.416;13.548;2022-12-17T14:37:34;24.02;;;9.52;;
68593;SDS011;55563;52.416;13.548;2022-12-17T14:39:34;22.25;;;8.93;;
68593;SDS011;55563;52.416;13.548;2022-12-17T14:41:36;21.33;;;8.82;;
68593;SDS011;55563;52.416;13.548;2022-12-17T14:43:58;21.77;;;8.98;;
68593;SDS011;55563;52.416;13.548;2022-12-17T14:46:00;21.27;;;8.82;;